Time;durP1;ratioP1;P1;durP2;ratioP2;P2;SDS_P1;SDS_P2;PMS_P1;PMS_P2;Temp;Humidity;BMP_temperature;BMP_pressure;BME280_temperature;BME280_humidity;BME280_pressure;Samples;Min_cycle;Max_cycle;Signal;HPM_P1;HPM_P2
2021/03/06 00:01:20;;;;;;;6.63;3.93;;;12.90;46.30;;;;;;5094753;28;20468;-58
2021/03/06 00:03:47;;;;;;;6.60;4.17;;;12.90;46.50;;;;;;5094572;28;20464;-57
2021/03/06 00:06:13;;;;;;;7.87;3.97;;;12.90;46.40;;;;;;5094764;28;20606;-57
2021/03/06 00:08:40;;;;;;;6.50;4.23;;;12.90;46.60;;;;;;5102931;27;20436;-55
2021/03/06 00:11:08;;;;;;;10.10;4.30;;;12.80;46.50;;;;;;5115598;28;20511;-57
2021/03/06 00:13:35;;;;;;;5.40;4.00;;;12.80;46.60;;;;;;5115395;27;20538;-57
2021/03/06 00:16:03;;;;;;;5.77;4.00;;;12.80;47.20;;;;;;5114953;28;20436;-57
2021/03/06 00:18:30;;;;;;;7.00;4.23;;;12.80;46.70;;;;;;5099416;28;20443;-56
2021/03/06 00:20:56;;;;;;;10.23;4.40;;;12.80;46.60;;;;;;5094829;28;20440;-57
2021/03/06 00:23:40;;;;;;;7.60;4.40;;;12.80;46.60;;;;;;5095013;28;20496;-55
2021/03/06 00:26:08;;;;;;;6.33;4.20;;;12.70;46.70;;;;;;5093902;28;20438;-57
2021/03/06 00:28:35;;;;;;;8.10;4.60;;;12.80;46.70;;;;;;5095088;28;20494;-57
2021/03/06 00:31:02;;;;;;;5.70;4.20;;;12.70;46.70;;;;;;5094912;28;20483;-57
2021/03/06 00:33:29;;;;;;;8.60;4.30;;;12.70;46.80;;;;;;5094801;28;20498;-57
2021/03/06 00:35:57;;;;;;;6.30;4.00;;;12.70;46.80;;;;;;5122397;27;20450;-57
2021/03/06 00:38:24;;;;;;;6.53;4.00;;;12.80;46.70;;;;;;5135453;27;20494;-57
2021/03/06 00:40:52;;;;;;;5.80;4.00;;;12.80;46.70;;;;;;5135628;27;20447;-58
2021/03/06 00:43:20;;;;;;;7.00;4.43;;;12.80;46.70;;;;;;5134506;27;20486;-57
2021/03/06 00:45:47;;;;;;;6.47;4.17;;;12.80;46.70;;;;;;5135084;27;20481;-57
2021/03/06 00:48:14;;;;;;;5.87;4.20;;;12.80;46.70;;;;;;5135134;27;20458;-55
2021/03/06 00:50:41;;;;;;;7.13;4.03;;;12.80;46.70;;;;;;5135561;27;20462;-57
2021/03/06 00:53:07;;;;;;;8.03;4.07;;;12.70;46.70;;;;;;5134689;27;20522;-55
2021/03/06 00:55:34;;;;;;;8.27;4.10;;;12.70;46.70;;;;;;5134546;27;20443;-57
2021/03/06 00:58:01;;;;;;;4.97;3.83;;;12.70;46.70;;;;;;5135084;27;20426;-57
2021/03/06 01:00:29;;;;;;;6.33;4.20;;;12.70;46.70;;;;;;5124995;27;20437;-57
2021/03/06 01:02:57;;;;;;;6.37;4.10;;;12.70;46.80;;;;;;5119576;27;20476;-56
2021/03/06 01:05:23;;;;;;;6.53;4.30;;;12.70;46.70;;;;;;5114119;28;20439;-57
2021/03/06 01:07:50;;;;;;;7.60;4.30;;;12.70;46.60;;;;;;5114576;28;20527;-57
2021/03/06 01:10:19;;;;;;;5.13;3.70;;;12.70;46.70;;;;;;5109821;27;20468;-57
2021/03/06 01:12:45;;;;;;;5.53;3.87;;;12.70;46.80;;;;;;5094385;28;20503;-58
2021/03/06 01:15:13;;;;;;;5.60;4.07;;;12.70;46.80;;;;;;5093449;28;20424;-57
2021/03/06 01:17:40;;;;;;;6.97;4.10;;;12.80;46.80;;;;;;5094222;28;20433;-57
2021/03/06 01:20:09;;;;;;;6.80;3.90;;;12.70;46.70;;;;;;5094703;28;20480;-57
2021/03/06 01:22:36;;;;;;;5.37;3.80;;;12.70;46.40;;;;;;5094110;28;20500;-56
2021/03/06 01:25:03;;;;;;;7.40;3.83;;;12.70;46.10;;;;;;5093769;28;20498;-57
2021/03/06 01:27:30;;;;;;;6.80;3.93;;;12.60;46.00;;;;;;5094353;28;20505;-57
2021/03/06 01:29:57;;;;;;;5.07;3.70;;;12.70;46.00;;;;;;5093717;28;20445;-57
2021/03/06 01:32:24;;;;;;;8.87;4.10;;;12.60;46.00;;;;;;5093837;28;20533;-56
2021/03/06 01:34:53;;;;;;;5.43;3.73;;;12.70;46.30;;;;;;5093321;28;20486;-57
2021/03/06 01:37:20;;;;;;;8.77;4.00;;;12.70;46.90;;;;;;5093939;28;20460;-58
2021/03/06 01:39:46;;;;;;;5.60;4.07;;;12.70;46.50;;;;;;5093577;28;20464;-57
2021/03/06 01:42:13;;;;;;;8.77;3.60;;;12.70;46.50;;;;;;5093785;28;20532;-57
2021/03/06 01:44:40;;;;;;;6.30;3.57;;;12.60;46.60;;;;;;5092811;28;20541;-56
2021/03/06 01:47:07;;;;;;;5.20;3.80;;;12.70;46.80;;;;;;5127896;28;20464;-58
2021/03/06 01:49:34;;;;;;;9.17;4.20;;;12.60;46.80;;;;;;5134004;27;20476;-57
2021/03/06 01:52:02;;;;;;;4.80;3.30;;;12.60;46.90;;;;;;5134894;27;20546;-57
2021/03/06 01:54:28;;;;;;;6.17;3.83;;;12.70;46.90;;;;;;5127332;27;20452;-58
2021/03/06 01:56:56;;;;;;;6.30;3.90;;;12.60;47.00;;;;;;5134386;27;20561;-58
2021/03/06 01:59:23;;;;;;;6.13;3.83;;;12.70;47.20;;;;;;5134336;27;20457;-57
2021/03/06 02:01:49;;;;;;;4.63;3.53;;;12.60;47.30;;;;;;5134304;27;20427;-57
2021/03/06 02:04:17;;;;;;;5.10;3.43;;;12.60;47.30;;;;;;5133448;27;20507;-55
2021/03/06 02:06:44;;;;;;;8.90;3.90;;;12.70;47.30;;;;;;5134357;27;20435;-57
2021/03/06 02:09:11;;;;;;;6.50;3.30;;;12.70;47.30;;;;;;5134366;27;20486;-57
2021/03/06 02:11:43;;;;;;;6.60;3.67;;;12.70;47.30;;;;;;5128964;27;20519;-55
2021/03/06 02:14:46;;;;;;;8.33;4.00;;;12.70;47.40;;;;;;5092935;28;20516;-57
2021/03/06 02:17:17;;;;;;;7.00;4.00;;;12.60;47.50;;;;;;5093521;28;20428;-58
2021/03/06 02:20:33;;;;;;;12.13;3.60;;;12.60;47.70;;;;;;5093292;28;20505;-57
2021/03/06 02:23:31;;;;;;;6.90;3.67;;;12.70;47.80;;;;;;5031288;28;20494;-57
2021/03/06 02:26:19;;;;;;;6.37;3.33;;;12.60;47.80;;;;;;5092222;28;20460;-57
2021/03/06 02:28:49;;;;;;;6.83;3.10;;;12.60;47.80;;;;;;5093494;28;20460;-58
2021/03/06 02:31:17;;;;;;;5.70;3.63;;;12.70;48.40;;;;;;5125867;28;20435;-57
2021/03/06 02:33:48;;;;;;;7.27;4.00;;;12.70;48.00;;;;;;5134275;27;20445;-57
2021/03/06 02:36:16;;;;;;;6.07;3.27;;;12.70;47.90;;;;;;5133596;27;20554;-59
2021/03/06 02:38:43;;;;;;;5.83;3.33;;;12.70;48.00;;;;;;5133539;27;20437;-55
2021/03/06 02:41:10;;;;;;;6.27;3.73;;;12.70;47.90;;;;;;5134203;27;20435;-57
2021/03/06 02:43:37;;;;;;;6.80;3.77;;;12.70;48.00;;;;;;5133995;27;20562;-58
2021/03/06 02:46:05;;;;;;;6.10;4.07;;;12.70;48.50;;;;;;5131559;27;20503;-56
2021/03/06 02:48:33;;;;;;;7.33;3.80;;;12.70;48.00;;;;;;5133454;27;20457;-58
2021/03/06 02:51:01;;;;;;;6.97;3.50;;;12.70;47.90;;;;;;5137455;27;20490;-57
2021/03/06 02:53:28;;;;;;;4.37;3.13;;;12.70;48.10;;;;;;5137697;27;20518;-58
2021/03/06 02:55:55;;;;;;;7.73;3.20;;;12.70;48.00;;;;;;5137257;27;20434;-57
2021/03/06 02:58:33;;;;;;;4.60;3.30;;;12.60;48.20;;;;;;5137383;27;20431;-56
2021/03/06 03:01:02;;;;;;;5.37;3.67;;;12.70;48.20;;;;;;5137266;27;20495;-54
2021/03/06 03:03:41;;;;;;;6.03;3.50;;;12.60;48.20;;;;;;5137238;27;20427;-58
2021/03/06 03:06:11;;;;;;;10.33;3.80;;;12.60;48.40;;;;;;5114201;27;20547;-57
2021/03/06 03:08:40;;;;;;;6.73;3.87;;;12.60;48.40;;;;;;5096533;28;20451;-58
2021/03/06 03:11:09;;;;;;;6.23;3.30;;;12.60;48.40;;;;;;5095994;28;20437;-58
2021/03/06 03:13:37;;;;;;;5.27;3.40;;;12.60;48.50;;;;;;5096211;28;20468;-54
2021/03/06 03:16:07;;;;;;;5.43;3.63;;;12.50;48.50;;;;;;5096409;28;20543;-57
2021/03/06 03:18:37;;;;;;;6.07;3.30;;;12.60;48.60;;;;;;5096321;28;20475;-58
2021/03/06 03:21:05;;;;;;;3.50;3.00;;;12.60;48.50;;;;;;5091073;28;20521;-57
2021/03/06 03:23:34;;;;;;;5.47;3.43;;;12.50;48.60;;;;;;5096349;27;20499;-57
2021/03/06 03:26:03;;;;;;;4.90;3.30;;;12.50;48.70;;;;;;5095523;28;20437;-57
2021/03/06 03:28:30;;;;;;;5.73;2.80;;;12.40;48.90;;;;;;5096209;28;20479;-57
2021/03/06 03:30:57;;;;;;;6.40;3.00;;;12.40;49.00;;;;;;5096045;28;20441;-58
2021/03/06 03:33:24;;;;;;;6.60;3.87;;;12.40;49.60;;;;;;5113801;27;20451;-57
2021/03/06 03:35:53;;;;;;;4.83;2.73;;;12.60;48.80;;;;;;5115653;28;20440;-58
2021/03/06 03:38:20;;;;;;;7.10;3.73;;;12.50;48.80;;;;;;5115937;28;20485;-56
2021/03/06 03:40:46;;;;;;;7.50;3.30;;;12.50;48.80;;;;;;5111273;27;20520;-56
2021/03/06 03:43:14;;;;;;;4.80;3.00;;;12.50;48.80;;;;;;5095939;28;20445;-57
2021/03/06 03:45:40;;;;;;;7.03;3.30;;;12.50;49.00;;;;;;5095228;28;20503;-55
2021/03/06 03:48:08;;;;;;;6.50;3.27;;;12.50;49.00;;;;;;5095774;28;20467;-57
2021/03/06 03:50:35;;;;;;;4.73;3.00;;;12.50;48.80;;;;;;5095926;27;20535;-57
2021/03/06 03:53:02;;;;;;;4.60;3.23;;;12.50;48.80;;;;;;5095398;28;20460;-57
2021/03/06 03:55:29;;;;;;;5.53;3.00;;;12.50;49.00;;;;;;5094755;28;20475;-52
2021/03/06 03:57:56;;;;;;;5.40;3.50;;;12.40;48.90;;;;;;5096129;28;20468;-57
2021/03/06 04:00:23;;;;;;;6.30;3.07;;;12.50;49.20;;;;;;5095250;28;20532;-55
2021/03/06 04:02:50;;;;;;;7.40;3.27;;;12.50;49.00;;;;;;5095392;28;20436;-57
2021/03/06 04:05:17;;;;;;;5.73;2.97;;;12.50;49.10;;;;;;5094587;28;20610;-57
2021/03/06 04:07:45;;;;;;;4.97;3.40;;;12.50;49.00;;;;;;5095297;28;20482;-56
2021/03/06 04:10:13;;;;;;;5.50;3.27;;;12.50;49.00;;;;;;5095224;28;20445;-55
2021/03/06 04:12:41;;;;;;;5.43;3.37;;;12.40;49.20;;;;;;5095112;28;20514;-55
2021/03/06 04:15:08;;;;;;;3.23;2.63;;;12.40;49.30;;;;;;5094619;28;20472;-54
2021/03/06 04:17:35;;;;;;;5.00;3.00;;;12.50;49.20;;;;;;5095747;27;20537;-58
2021/03/06 04:20:02;;;;;;;6.20;3.00;;;12.50;49.10;;;;;;5094735;28;20429;-57
2021/03/06 04:22:30;;;;;;;3.83;2.70;;;12.50;49.00;;;;;;5089394;28;20495;-56
2021/03/06 04:24:57;;;;;;;3.43;2.47;;;12.50;49.00;;;;;;5102640;27;20475;-57
2021/03/06 04:27:24;;;;;;;4.00;2.80;;;12.60;48.90;;;;;;5135716;27;20515;-57
2021/03/06 04:29:52;;;;;;;9.17;2.80;;;12.50;49.00;;;;;;5136033;27;20443;-57
2021/03/06 04:32:19;;;;;;;4.50;3.47;;;12.50;49.10;;;;;;5135543;27;20485;-57
2021/03/06 04:34:46;;;;;;;4.43;2.83;;;12.60;49.10;;;;;;5134536;27;20463;-57
2021/03/06 04:37:13;;;;;;;3.53;2.63;;;12.50;48.90;;;;;;5135804;27;20482;-57
2021/03/06 04:39:40;;;;;;;4.63;2.80;;;12.50;49.10;;;;;;5135729;27;20546;-57
2021/03/06 04:42:07;;;;;;;5.73;3.17;;;12.50;49.00;;;;;;5135726;27;20510;-57
2021/03/06 04:44:34;;;;;;;5.40;2.53;;;12.60;49.10;;;;;;5134415;27;20467;-57
2021/03/06 04:47:03;;;;;;;5.73;2.83;;;12.50;49.10;;;;;;5135373;27;20435;-57
2021/03/06 04:49:30;;;;;;;6.87;2.53;;;12.40;49.20;;;;;;5135570;27;20504;-57
2021/03/06 04:51:57;;;;;;;4.70;3.10;;;12.50;49.10;;;;;;5134745;27;20492;-57
2021/03/06 04:54:24;;;;;;;3.10;2.73;;;12.50;49.10;;;;;;5135153;27;20467;-57
2021/03/06 04:57:07;;;;;;;2.47;2.30;;;12.50;49.10;;;;;;5135517;27;20487;-57
2021/03/06 04:59:35;;;;;;;4.63;2.83;;;12.40;49.40;;;;;;5135173;27;20464;-56
2021/03/06 05:02:02;;;;;;;3.30;2.73;;;12.40;49.40;;;;;;5116645;27;20447;-56
2021/03/06 05:04:30;;;;;;;4.17;2.60;;;12.40;50.00;;;;;;5114194;28;20468;-57
2021/03/06 05:06:56;;;;;;;4.53;2.30;;;12.40;49.40;;;;;;5114444;28;20459;-57
2021/03/06 05:09:23;;;;;;;3.57;2.90;;;12.50;49.40;;;;;;5114470;28;20467;-53
2021/03/06 05:11:50;;;;;;;4.50;2.60;;;12.50;49.20;;;;;;5114762;28;20444;-57
2021/03/06 05:14:17;;;;;;;4.17;2.80;;;12.50;49.20;;;;;;5113897;28;20507;-57
2021/03/06 05:16:45;;;;;;;3.23;2.43;;;12.40;49.20;;;;;;5114315;27;20454;-57
2021/03/06 05:19:12;;;;;;;3.73;2.47;;;12.40;49.40;;;;;;5101335;28;20436;-57
2021/03/06 05:21:39;;;;;;;3.40;2.70;;;12.40;49.40;;;;;;5093994;28;20511;-57
2021/03/06 05:24:06;;;;;;;4.97;2.90;;;12.40;49.40;;;;;;5093466;28;20580;-57
2021/03/06 05:26:33;;;;;;;8.07;2.77;;;12.40;49.40;;;;;;5093710;28;20503;-57
2021/03/06 05:29:00;;;;;;;5.23;3.00;;;12.40;49.50;;;;;;5093842;28;20525;-58
2021/03/06 05:31:27;;;;;;;2.63;2.13;;;12.40;49.50;;;;;;5093883;28;20467;-56
2021/03/06 05:33:55;;;;;;;4.17;2.40;;;12.40;49.50;;;;;;5093917;28;20531;-57
2021/03/06 05:36:22;;;;;;;5.33;2.50;;;12.40;49.20;;;;;;5089163;27;20444;-57
2021/03/06 05:38:49;;;;;;;3.20;2.60;;;12.40;49.30;;;;;;5093726;28;20432;-56
2021/03/06 05:41:18;;;;;;;4.73;2.57;;;12.30;49.60;;;;;;5092322;28;20516;-57
2021/03/06 05:43:45;;;;;;;3.10;2.60;;;12.40;49.50;;;;;;5092350;28;20502;-56
2021/03/06 05:46:13;;;;;;;3.53;2.57;;;12.30;49.50;;;;;;5093475;28;20534;-57
2021/03/06 05:48:40;;;;;;;3.10;2.30;;;12.30;49.70;;;;;;5095305;28;20449;-57
2021/03/06 05:51:08;;;;;;;3.40;3.00;;;12.30;49.50;;;;;;5109790;28;20439;-57
2021/03/06 05:53:35;;;;;;;5.30;2.63;;;12.30;49.50;;;;;;5114188;28;20604;-57
2021/03/06 05:56:02;;;;;;;4.43;2.30;;;12.30;49.60;;;;;;5112644;28;20428;-57
2021/03/06 05:58:31;;;;;;;3.40;2.60;;;12.30;49.70;;;;;;5114221;28;20440;-57
2021/03/06 06:00:59;;;;;;;2.50;2.20;;;12.30;49.60;;;;;;5113938;28;20440;-57
2021/03/06 06:03:25;;;;;;;5.70;2.57;;;12.30;49.60;;;;;;5127000;28;20470;-56
2021/03/06 06:05:54;;;;;;;5.67;2.07;;;12.30;49.70;;;;;;5134037;27;20474;-57
2021/03/06 06:08:21;;;;;;;4.77;2.57;;;12.30;49.50;;;;;;5134756;27;20538;-56
2021/03/06 06:10:48;;;;;;;3.80;2.20;;;12.30;49.60;;;;;;5133544;27;20477;-57
2021/03/06 06:13:16;;;;;;;2.90;2.60;;;12.20;49.60;;;;;;5114252;28;20454;-57
2021/03/06 06:15:43;;;;;;;2.20;2.00;;;12.10;49.80;;;;;;5113330;28;20451;-57
2021/03/06 06:18:09;;;;;;;2.63;2.10;;;12.10;49.90;;;;;;5113721;28;20459;-57
2021/03/06 06:20:37;;;;;;;3.50;2.63;;;12.10;50.10;;;;;;5122177;28;20449;-55
2021/03/06 06:23:11;;;;;;;4.37;3.30;;;12.10;49.80;;;;;;5134515;27;20527;-57
2021/03/06 06:25:42;;;;;;;4.03;2.47;;;12.10;49.80;;;;;;5136726;27;20557;-56
2021/03/06 06:28:22;;;;;;;2.17;1.97;;;12.00;50.00;;;;;;5137691;27;20431;-57
2021/03/06 06:31:10;;;;;;;4.17;2.50;;;12.00;50.30;;;;;;5097399;27;20429;-57
2021/03/06 06:33:38;;;;;;;3.13;2.10;;;12.00;50.40;;;;;;5096841;28;20428;-57
2021/03/06 06:36:05;;;;;;;2.47;2.20;;;11.90;50.30;;;;;;5091578;28;20540;-54
2021/03/06 06:38:41;;;;;;;5.50;2.20;;;12.00;50.20;;;;;;5097529;28;20508;-57
2021/03/06 06:41:08;;;;;;;2.50;2.30;;;12.00;50.30;;;;;;5096883;28;20440;-59
2021/03/06 06:43:35;;;;;;;3.53;2.10;;;12.00;50.10;;;;;;5097003;28;20462;-57
2021/03/06 06:46:02;;;;;;;5.10;2.33;;;12.10;50.20;;;;;;5095718;28;20472;-57
2021/03/06 06:48:29;;;;;;;3.73;2.17;;;12.00;50.20;;;;;;5097357;27;20444;-57
2021/03/06 06:51:06;;;;;;;3.17;2.43;;;12.00;50.10;;;;;;5096912;28;20509;-57
2021/03/06 06:53:33;;;;;;;4.23;2.33;;;12.10;49.90;;;;;;5096717;28;20444;-57
2021/03/06 06:56:00;;;;;;;5.23;2.50;;;12.10;50.70;;;;;;5096293;27;20457;-57
2021/03/06 06:58:44;;;;;;;2.73;2.20;;;12.00;50.10;;;;;;5096751;28;20433;-57
2021/03/06 07:01:30;;;;;;;2.20;2.00;;;12.10;50.10;;;;;;5096640;28;20429;-57
2021/03/06 07:04:04;;;;;;;2.10;2.00;;;12.10;50.20;;;;;;5096716;27;20448;-58
2021/03/06 07:06:31;;;;;;;2.40;2.07;;;12.10;50.10;;;;;;5096111;28;20455;-56
2021/03/06 07:09:09;;;;;;;2.80;2.10;;;12.10;50.00;;;;;;5096336;28;20429;-56
2021/03/06 07:11:36;;;;;;;3.60;2.43;;;12.30;49.90;;;;;;5096408;28;20474;-57
2021/03/06 07:14:05;;;;;;;2.70;2.03;;;12.30;49.60;;;;;;5096794;28;20498;-57
2021/03/06 07:17:00;;;;;;;2.20;2.00;;;12.50;49.50;;;;;;5096292;28;20531;-57
2021/03/06 07:19:29;;;;;;;2.57;2.30;;;12.50;49.30;;;;;;5096870;28;20450;-57
2021/03/06 07:21:57;;;;;;;2.40;2.17;;;12.60;49.20;;;;;;5096590;27;20517;-57
2021/03/06 07:24:24;;;;;;;2.40;2.20;;;12.60;49.10;;;;;;5095769;28;20477;-57
2021/03/06 07:26:52;;;;;;;2.80;2.20;;;12.60;49.10;;;;;;5096296;28;20472;-57
2021/03/06 07:29:21;;;;;;;3.87;2.10;;;12.70;49.00;;;;;;5096184;28;20444;-57
2021/03/06 07:31:50;;;;;;;2.83;1.83;;;12.70;48.90;;;;;;5108267;28;20547;-56
2021/03/06 07:34:18;;;;;;;3.13;2.40;;;12.70;48.90;;;;;;5115955;28;20428;-57
2021/03/06 07:36:45;;;;;;;2.10;1.90;;;12.80;48.90;;;;;;5111289;28;20559;-58
2021/03/06 07:39:13;;;;;;;5.07;1.80;;;12.90;48.80;;;;;;5116126;28;20512;-56
2021/03/06 07:41:42;;;;;;;2.80;2.20;;;12.90;48.80;;;;;;5095523;28;20452;-57
2021/03/06 07:44:08;;;;;;;2.20;1.97;;;12.90;48.80;;;;;;5095210;28;20469;-57
2021/03/06 07:46:38;;;;;;;2.57;2.07;;;12.90;48.90;;;;;;5095565;28;20541;-57
2021/03/06 07:49:10;;;;;;;3.20;2.17;;;12.90;48.80;;;;;;5096184;27;20437;-57
2021/03/06 07:51:41;;;;;;;3.97;2.30;;;13.00;48.60;;;;;;5095275;28;20465;-57
2021/03/06 07:54:08;;;;;;;2.20;2.00;;;13.00;48.50;;;;;;5095120;28;20445;-58
2021/03/06 07:56:36;;;;;;;6.07;2.27;;;13.00;48.60;;;;;;5095206;28;20437;-57
2021/03/06 07:59:49;;;;;;;2.20;1.70;;;13.20;48.70;;;;;;5115916;28;20442;-57
2021/03/06 08:02:34;;;;;;;2.00;1.90;;;13.10;48.50;;;;;;5115660;27;20451;-57
2021/03/06 08:05:44;;;;;;;2.37;1.90;;;13.10;48.50;;;;;;5114913;28;20466;-57
2021/03/06 08:08:23;;;;;;;2.57;2.20;;;13.00;48.80;;;;;;5095153;28;20444;-57
2021/03/06 08:11:03;;;;;;;2.47;2.17;;;13.10;48.80;;;;;;5094841;28;20537;-56
2021/03/06 08:13:33;;;;;;;3.00;1.90;;;13.10;48.70;;;;;;5095282;28;20535;-57
2021/03/06 08:16:04;;;;;;;2.30;2.03;;;13.20;48.60;;;;;;5094940;27;20444;-57
2021/03/06 08:18:32;;;;;;;2.27;2.00;;;13.20;48.60;;;;;;5094795;28;20518;-57
2021/03/06 08:21:26;;;;;;;2.10;2.00;;;13.30;48.50;;;;;;5095224;28;20531;-56
2021/03/06 08:24:27;;;;;;;1.70;1.60;;;13.30;48.50;;;;;;5102749;27;20501;-57
2021/03/06 08:27:13;;;;;;;2.27;1.60;;;13.40;48.50;;;;;;5136327;27;20453;-58
2021/03/06 08:29:46;;;;;;;2.50;1.63;;;13.60;48.20;;;;;;5136090;27;20435;-57
2021/03/06 08:32:15;;;;;;;2.43;2.20;;;13.70;48.10;;;;;;5135844;27;20458;-57
2021/03/06 08:34:45;;;;;;;2.90;2.23;;;13.80;47.90;;;;;;5134666;27;20488;-57
2021/03/06 08:37:31;;;;;;;3.10;1.80;;;13.80;47.90;;;;;;5135782;27;20427;-55
2021/03/06 08:40:00;;;;;;;3.50;2.40;;;13.80;47.90;;;;;;5135701;27;20466;-57
2021/03/06 08:42:28;;;;;;;2.00;1.87;;;13.80;47.70;;;;;;5135011;27;20451;-57
2021/03/06 08:44:56;;;;;;;3.50;2.07;;;13.90;47.60;;;;;;5134869;27;20586;-57
2021/03/06 08:47:24;;;;;;;2.47;2.27;;;14.10;47.40;;;;;;5134887;27;20435;-55
2021/03/06 08:49:54;;;;;;;2.50;2.20;;;14.20;47.30;;;;;;5135131;27;20431;-57
2021/03/06 08:52:21;;;;;;;2.13;1.93;;;14.20;47.20;;;;;;5134682;27;20471;-57
2021/03/06 08:54:48;;;;;;;2.17;1.93;;;14.20;47.30;;;;;;5134640;27;20470;-57
2021/03/06 08:57:29;;;;;;;5.10;2.20;;;14.10;47.30;;;;;;5135099;27;20470;-54
2021/03/06 09:00:09;;;;;;;5.13;2.30;;;14.10;47.40;;;;;;5134967;27;20467;-57
2021/03/06 09:02:36;;;;;;;2.10;1.90;;;14.10;47.50;;;;;;5135343;27;20542;-57
2021/03/06 09:05:09;;;;;;;2.17;1.90;;;14.20;47.50;;;;;;5134431;27;20539;-56
2021/03/06 09:07:37;;;;;;;3.00;2.30;;;14.30;47.40;;;;;;5135218;27;20542;-57
2021/03/06 09:10:33;;;;;;;2.30;2.10;;;14.30;47.20;;;;;;5134489;27;20475;-56
2021/03/06 09:13:02;;;;;;;2.30;2.00;;;14.60;47.00;;;;;;5099725;27;20495;-57
2021/03/06 09:15:34;;;;;;;1.70;1.60;;;14.80;46.80;;;;;;5134254;27;20515;-55
2021/03/06 09:18:02;;;;;;;2.13;1.87;;;14.70;46.80;;;;;;5134477;27;20437;-57
2021/03/06 09:20:30;;;;;;;5.10;2.00;;;14.80;46.70;;;;;;5134704;27;20434;-56
2021/03/06 09:22:57;;;;;;;4.90;2.63;;;14.80;46.50;;;;;;5134720;27;20458;-57
2021/03/06 09:25:32;;;;;;;4.00;1.93;;;14.80;46.60;;;;;;5134585;27;20531;-57
2021/03/06 09:27:59;;;;;;;2.00;1.80;;;14.80;46.90;;;;;;5093925;28;20436;-55
2021/03/06 09:30:30;;;;;;;2.40;2.20;;;14.80;46.80;;;;;;5094046;28;20433;-58
2021/03/06 09:32:57;;;;;;;2.07;1.87;;;14.90;46.90;;;;;;5094165;28;20509;-56
2021/03/06 09:35:25;;;;;;;2.87;1.80;;;15.10;46.50;;;;;;5093754;28;20441;-57
2021/03/06 09:38:09;;;;;;;3.20;2.10;;;15.30;46.30;;;;;;5093935;28;20468;-56
2021/03/06 09:40:41;;;;;;;3.53;2.07;;;15.20;46.20;;;;;;5093782;28;20524;-57
2021/03/06 09:43:27;;;;;;;1.80;1.70;;;15.10;46.40;;;;;;5093923;28;20448;-57
2021/03/06 09:45:54;;;;;;;2.10;1.83;;;15.20;46.40;;;;;;5092987;28;20563;-58
2021/03/06 09:48:21;;;;;;;3.50;2.40;;;15.20;46.30;;;;;;5093686;28;20464;-57
2021/03/06 09:50:48;;;;;;;2.90;2.00;;;15.20;46.40;;;;;;5093874;28;20476;-57
2021/03/06 09:53:18;;;;;;;3.40;2.23;;;15.20;46.20;;;;;;5104531;28;20479;-57
2021/03/06 09:55:45;;;;;;;5.53;2.43;;;15.40;45.90;;;;;;5113223;28;20601;-55
2021/03/06 09:58:19;;;;;;;1.90;1.80;;;15.40;46.10;;;;;;5114593;28;20432;-57
2021/03/06 10:00:48;;;;;;;2.53;2.20;;;15.50;46.00;;;;;;5118255;28;20500;-57
2021/03/06 10:03:32;;;;;;;3.17;1.90;;;15.50;45.80;;;;;;5097835;27;20447;-57
2021/03/06 10:06:00;;;;;;;1.90;1.80;;;15.50;45.70;;;;;;5097188;28;20533;-58
2021/03/06 10:08:29;;;;;;;2.47;2.00;;;15.50;45.70;;;;;;5097577;28;20524;-57
2021/03/06 10:10:55;;;;;;;2.90;1.70;;;15.50;45.70;;;;;;5098051;27;20464;-55
2021/03/06 10:13:22;;;;;;;4.07;2.27;;;15.30;45.90;;;;;;5097293;28;20440;-57
2021/03/06 10:15:50;;;;;;;2.03;1.57;;;15.30;46.00;;;;;;5096804;28;20432;-57
2021/03/06 10:18:18;;;;;;;3.10;2.50;;;15.50;45.90;;;;;;5098066;28;20518;-58
2021/03/06 10:20:46;;;;;;;3.67;1.90;;;15.50;45.60;;;;;;5097509;28;20444;-57
2021/03/06 10:23:33;;;;;;;4.53;1.87;;;15.50;45.80;;;;;;5097436;28;20440;-57
2021/03/06 10:26:22;;;;;;;3.33;1.70;;;15.50;45.80;;;;;;5096746;28;20496;-57
2021/03/06 10:28:51;;;;;;;2.43;2.13;;;15.50;45.70;;;;;;5097826;28;20530;-57
2021/03/06 10:31:35;;;;;;;2.60;1.63;;;15.50;45.80;;;;;;5097296;28;20464;-58
2021/03/06 10:34:16;;;;;;;2.03;1.83;;;15.20;46.00;;;;;;5097036;28;20437;-57
2021/03/06 10:36:43;;;;;;;2.40;1.90;;;15.20;46.30;;;;;;5105031;27;20506;-56
2021/03/06 10:39:15;;;;;;;2.63;1.60;;;15.10;46.20;;;;;;5138114;27;20467;-57
2021/03/06 10:41:42;;;;;;;2.07;1.40;;;15.10;46.30;;;;;;5137699;27;20497;-58
2021/03/06 10:44:09;;;;;;;3.20;1.67;;;15.00;46.40;;;;;;5137635;27;20435;-58
2021/03/06 10:46:36;;;;;;;3.93;2.13;;;15.10;46.40;;;;;;5112259;27;20531;-57
2021/03/06 10:49:04;;;;;;;1.70;1.60;;;15.30;46.20;;;;;;5096801;28;20440;-56
2021/03/06 10:51:45;;;;;;;4.23;1.70;;;15.50;45.90;;;;;;5096672;28;20444;-57
2021/03/06 10:54:12;;;;;;;2.30;1.80;;;15.70;45.30;;;;;;5096772;28;20475;-57
2021/03/06 10:56:42;;;;;;;1.80;1.43;;;15.80;45.30;;;;;;5097044;28;20432;-58
2021/03/06 10:59:09;;;;;;;1.80;1.70;;;16.00;44.90;;;;;;5096801;28;20492;-57
2021/03/06 11:01:45;;;;;;;2.47;1.70;;;16.30;44.30;;;;;;5096433;28;20432;-57
2021/03/06 11:04:26;;;;;;;1.90;1.50;;;16.40;43.90;;;;;;5096162;27;20466;-58
2021/03/06 11:06:56;;;;;;;3.40;1.70;;;16.60;44.00;;;;;;5095870;28;20468;-57
2021/03/06 11:09:27;;;;;;;1.90;1.80;;;16.50;44.30;;;;;;5096400;28;20437;-58
2021/03/06 11:11:55;;;;;;;1.70;1.60;;;16.40;44.80;;;;;;5096294;27;20531;-57
2021/03/06 11:14:25;;;;;;;1.73;1.63;;;16.30;45.20;;;;;;5095916;28;20523;-58
2021/03/06 11:16:53;;;;;;;1.87;1.77;;;15.90;45.90;;;;;;5096099;28;20432;-57
2021/03/06 11:19:20;;;;;;;1.63;1.53;;;15.70;46.40;;;;;;5096459;28;20441;-57
2021/03/06 11:21:47;;;;;;;1.70;1.60;;;15.60;46.70;;;;;;5096856;28;20440;-58
2021/03/06 11:24:14;;;;;;;2.20;1.73;;;15.40;47.00;;;;;;5095707;28;20505;-58
2021/03/06 11:26:40;;;;;;;1.70;1.60;;;15.30;47.30;;;;;;5096448;28;20476;-54
2021/03/06 11:29:08;;;;;;;4.67;1.60;;;15.30;47.50;;;;;;5096145;28;20448;-59
2021/03/06 11:31:51;;;;;;;4.47;1.70;;;15.20;47.90;;;;;;5096178;28;20444;-59
2021/03/06 11:34:18;;;;;;;4.50;2.10;;;15.20;47.80;;;;;;5095321;28;20447;-53
2021/03/06 11:36:45;;;;;;;1.57;1.47;;;15.20;47.90;;;;;;5096077;28;20492;-57
2021/03/06 11:39:12;;;;;;;2.13;1.77;;;15.10;48.10;;;;;;5113291;27;20474;-55
2021/03/06 11:41:40;;;;;;;2.57;1.40;;;15.00;48.50;;;;;;5136732;27;20495;-56
2021/03/06 11:44:08;;;;;;;1.40;1.30;;;15.00;48.60;;;;;;5135873;27;20430;-58
2021/03/06 11:46:35;;;;;;;2.97;1.90;;;14.90;48.80;;;;;;5137012;27;20471;-58
2021/03/06 11:49:03;;;;;;;3.20;1.90;;;14.90;48.80;;;;;;5103183;27;20436;-58
2021/03/06 11:51:31;;;;;;;2.70;1.60;;;14.90;48.90;;;;;;5095962;28;20448;-58
2021/03/06 11:53:58;;;;;;;3.13;1.90;;;14.90;49.00;;;;;;5095405;28;20549;-58
2021/03/06 11:56:24;;;;;;;5.73;2.00;;;14.90;49.00;;;;;;5095339;27;20440;-59
2021/03/06 11:58:51;;;;;;;2.30;1.73;;;15.00;49.00;;;;;;5095847;28;20544;-57
2021/03/06 12:01:19;;;;;;;2.00;1.80;;;15.00;48.90;;;;;;5095317;28;20465;-57
2021/03/06 12:03:46;;;;;;;4.43;2.17;;;15.00;48.90;;;;;;5095339;28;20431;-57
2021/03/06 12:06:13;;;;;;;1.43;1.33;;;15.00;48.70;;;;;;5095147;27;20521;-58
2021/03/06 12:08:40;;;;;;;6.63;1.67;;;15.00;48.90;;;;;;5095443;28;20464;-57
2021/03/06 12:11:07;;;;;;;3.87;1.47;;;15.00;49.00;;;;;;5095090;28;20445;-58
2021/03/06 12:13:34;;;;;;;4.93;1.57;;;15.00;48.90;;;;;;5095167;28;20468;-58
2021/03/06 12:16:01;;;;;;;2.30;2.10;;;15.10;48.80;;;;;;5135686;27;20431;-58
2021/03/06 12:18:29;;;;;;;2.60;1.70;;;15.10;48.80;;;;;;5136347;27;20456;-58
2021/03/06 12:20:57;;;;;;;3.57;1.90;;;15.10;48.90;;;;;;5136263;27;20535;-57
2021/03/06 12:23:24;;;;;;;2.13;1.67;;;15.20;48.80;;;;;;5134612;27;20462;-58
2021/03/06 12:25:51;;;;;;;1.70;1.60;;;15.30;48.50;;;;;;5135032;27;20474;-58
2021/03/06 12:28:18;;;;;;;3.33;2.20;;;15.60;48.20;;;;;;5135922;27;20493;-58
2021/03/06 12:30:44;;;;;;;4.97;2.00;;;15.70;47.90;;;;;;5135897;27;20538;-58
2021/03/06 12:33:11;;;;;;;1.60;1.50;;;15.80;47.60;;;;;;5103882;27;20444;-57
2021/03/06 12:35:39;;;;;;;4.03;1.67;;;15.90;47.40;;;;;;5093966;28;20429;-58
2021/03/06 12:38:06;;;;;;;2.30;1.57;;;15.80;47.60;;;;;;5094665;28;20517;-59
2021/03/06 12:40:33;;;;;;;3.70;1.83;;;15.90;47.60;;;;;;5095271;27;20453;-59
2021/03/06 12:43:00;;;;;;;1.77;1.60;;;16.00;47.50;;;;;;5094739;28;20452;-59
2021/03/06 12:45:27;;;;;;;1.57;1.47;;;17.10;46.70;;;;;;5094231;28;20526;-55
2021/03/06 12:47:54;;;;;;;1.77;1.60;;;17.60;43.60;;;;;;5094746;28;20433;-58
2021/03/06 12:50:21;;;;;;;3.13;1.77;;;16.90;45.00;;;;;;5117437;27;20439;-59
2021/03/06 12:52:50;;;;;;;4.53;1.90;;;16.60;45.80;;;;;;5135266;27;20534;-59
2021/03/06 12:55:16;;;;;;;1.93;1.70;;;16.60;46.10;;;;;;5135157;27;20439;-58
2021/03/06 12:57:43;;;;;;;1.93;1.83;;;16.50;46.30;;;;;;5135569;27;20483;-58
2021/03/06 13:00:11;;;;;;;2.87;2.00;;;16.40;46.60;;;;;;5095590;27;20436;-58